Time;durP1;ratioP1;P1;durP2;ratioP2;P2;SDS_P1;SDS_P2;PMS_P1;PMS_P2;Temp;Humidity;BMP_temperature;BMP_pressure;BME280_temperature;BME280_humidity;BME280_pressure;Samples;Min_cycle;Max_cycle;Signal;HPM_P1;HPM_P2
2022/11/23 00:00:43;;;;;;;6.72;3.65;;;;;;;17.70;59.22;99426.38;4919529;29;20059;-79
2022/11/23 00:03:14;;;;;;;6.32;3.42;;;;;;;17.69;58.95;99430.91;4918858;29;20056;-78
2022/11/23 00:05:42;;;;;;;6.53;3.88;;;;;;;17.69;58.99;99433.59;4919546;29;20048;-79
2022/11/23 00:08:09;;;;;;;5.35;3.60;;;;;;;17.69;58.98;99433.59;4919250;29;20040;-79
2022/11/23 00:10:36;;;;;;;5.10;3.40;;;;;;;17.68;58.92;99437.25;4919629;29;20044;-79
2022/11/23 00:13:04;;;;;;;5.13;3.30;;;;;;;17.68;58.78;99431.91;4901489;29;20059;-79
2022/11/23 00:15:31;;;;;;;4.55;3.38;;;;;;;17.67;58.77;99430.22;4918767;29;20048;-79
2022/11/23 00:18:01;;;;;;;6.03;3.15;;;;;;;17.68;58.88;99426.56;4919030;29;20040;-79
2022/11/23 00:20:28;;;;;;;4.80;3.50;;;;;;;17.67;58.85;99432.91;4901375;29;20052;-79
2022/11/23 00:22:56;;;;;;;7.32;3.47;;;;;;;17.67;58.80;99440.09;4918929;29;20048;-79
2022/11/23 00:25:23;;;;;;;8.07;3.50;;;;;;;17.67;58.79;99440.09;4918707;29;20048;-78
2022/11/23 00:27:50;;;;;;;6.00;3.60;;;;;;;17.66;58.80;99439.25;4918515;29;20060;-79
2022/11/23 00:30:17;;;;;;;4.78;3.10;;;;;;;17.66;58.83;99439.25;4916972;29;20052;-79
2022/11/23 00:32:45;;;;;;;5.47;3.47;;;;;;;17.67;58.70;99440.09;4916822;29;20063;-79
2022/11/23 00:35:12;;;;;;;5.65;3.25;;;;;;;17.65;58.90;99440.25;4901531;29;20065;-79
2022/11/23 00:37:39;;;;;;;5.53;3.33;;;;;;;17.66;58.76;99449.09;4916750;29;20055;-79
2022/11/23 00:40:07;;;;;;;7.18;4.18;;;;;;;17.65;58.80;99442.91;4900717;29;20067;-80
2022/11/23 00:42:35;;;;;;;5.45;3.50;;;;;;;17.66;58.73;99451.78;4918100;29;20064;-79
2022/11/23 00:45:04;;;;;;;5.80;3.03;;;;;;;17.65;58.75;99448.28;4918176;29;20059;-79
2022/11/23 00:47:32;;;;;;;4.85;3.10;;;;;;;17.64;58.92;99445.75;4916353;29;20048;-79
2022/11/23 00:49:59;;;;;;;6.15;3.13;;;;;;;17.65;58.93;99450.94;4901932;29;20055;-79
2022/11/23 00:52:26;;;;;;;4.70;2.92;;;;;;;17.65;58.92;99444.75;4900885;29;20056;-80
2022/11/23 00:54:54;;;;;;;4.57;3.05;;;;;;;17.64;58.86;99446.59;4900398;29;20068;-79
2022/11/23 00:57:21;;;;;;;5.45;3.60;;;;;;;17.63;58.81;99452.94;4900844;29;20497;-79
2022/11/23 00:59:48;;;;;;;5.15;3.13;;;;;;;17.63;58.89;99450.28;4900818;29;20052;-79
2022/11/23 01:02:15;;;;;;;4.90;3.05;;;;;;;17.63;58.93;99450.28;4901384;29;20079;-79
2022/11/23 01:04:43;;;;;;;5.85;3.13;;;;;;;17.63;58.86;99452.94;4918787;29;20052;-79
2022/11/23 01:07:10;;;;;;;5.05;2.60;;;;;;;17.63;58.80;99455.63;4918417;29;20055;-79
2022/11/23 01:09:39;;;;;;;6.55;3.08;;;;;;;17.62;59.03;99451.25;4900475;29;20052;-79
2022/11/23 01:12:06;;;;;;;5.30;3.35;;;;;;;17.63;58.88;99460.13;4917819;29;20048;-79
2022/11/23 01:14:34;;;;;;;4.50;2.88;;;;;;;17.63;59.00;99460.97;4885388;29;20055;-79
2022/11/23 01:17:04;;;;;;;4.22;2.47;;;;;;;17.61;58.79;99449.56;4917613;29;20378;-79
2022/11/23 01:19:34;;;;;;;6.15;2.70;;;;;;;17.62;58.87;99458.44;4900285;29;20055;-78
2022/11/23 01:22:01;;;;;;;5.70;3.20;;;;;;;17.61;58.96;99468.31;4901391;29;20055;-79
2022/11/23 01:24:29;;;;;;;6.00;3.13;;;;;;;17.62;58.86;99467.31;4900354;29;20059;-79
2022/11/23 01:26:56;;;;;;;6.28;3.35;;;;;;;17.62;58.95;99469.97;4915970;29;20052;-79
2022/11/23 01:29:26;;;;;;;4.70;2.60;;;;;;;17.62;58.86;99469.13;4918178;29;20051;-77
2022/11/23 01:31:53;;;;;;;7.22;3.13;;;;;;;17.62;58.83;99466.47;4899984;29;20056;-78
2022/11/23 01:34:21;;;;;;;7.05;2.95;;;;;;;17.61;58.86;99465.63;4915847;29;20378;-78
2022/11/23 01:36:49;;;;;;;4.85;2.92;;;;;;;17.61;58.83;99470.16;4900040;29;20063;-78
2022/11/23 01:39:16;;;;;;;5.15;2.75;;;;;;;17.60;58.84;99474.66;4917286;29;20412;-78
2022/11/23 01:41:44;;;;;;;4.90;2.70;;;;;;;17.61;58.76;99484.34;4900379;29;20048;-78
2022/11/23 01:44:28;;;;;;;4.93;2.58;;;;;;;17.61;58.76;99484.34;4917985;29;20063;-78
2022/11/23 01:47:01;;;;;;;5.47;2.60;;;;;;;17.59;58.67;99486.38;4899873;29;20063;-78
2022/11/23 01:49:47;;;;;;;4.35;2.70;;;;;;;17.61;58.68;99488.88;4917859;29;20049;-77
2022/11/23 01:52:19;;;;;;;4.65;2.65;;;;;;;17.60;58.63;99490.72;4915725;29;20420;-77
2022/11/23 01:54:53;;;;;;;4.05;2.70;;;;;;;17.60;58.67;99490.72;4899913;29;20052;-78
2022/11/23 01:57:33;;;;;;;4.10;2.88;;;;;;;17.60;58.60;99504.09;4900242;29;20560;-78
2022/11/23 02:00:01;;;;;;;6.55;2.70;;;;;;;17.59;58.59;99510.44;4899808;29;20048;-78
2022/11/23 02:02:44;;;;;;;4.80;2.63;;;;;;;17.60;58.59;99508.59;4926452;29;20060;-78
2022/11/23 02:05:13;;;;;;;8.73;3.08;;;;;;;17.59;58.58;99506.94;4921575;29;20056;-78
2022/11/23 02:07:46;;;;;;;4.78;2.25;;;;;;;17.58;58.71;99511.41;4919755;29;20056;-78
2022/11/23 02:10:15;;;;;;;4.35;2.58;;;;;;;17.58;58.66;99513.25;4920995;29;20040;-78
2022/11/23 02:12:42;;;;;;;6.35;3.08;;;;;;;17.58;58.66;99510.59;4903681;29;20056;-79
2022/11/23 02:15:11;;;;;;;4.25;2.53;;;;;;;17.57;58.59;99506.22;4920881;29;20496;-79
2022/11/23 02:17:42;;;;;;;5.97;2.65;;;;;;;17.58;58.57;99511.41;4919687;29;20040;-78
2022/11/23 02:20:12;;;;;;;3.33;2.28;;;;;;;17.58;58.57;99514.09;4919300;29;20052;-78
2022/11/23 02:22:49;;;;;;;5.93;2.42;;;;;;;17.58;58.63;99513.25;4903807;29;20052;-79
2022/11/23 02:25:40;;;;;;;4.25;2.92;;;;;;;17.56;58.45;99521.44;4919105;29;20075;-79
2022/11/23 02:28:12;;;;;;;4.15;2.28;;;;;;;17.57;58.56;99520.44;4903654;29;20543;-79
2022/11/23 02:30:40;;;;;;;4.28;2.50;;;;;;;17.57;58.38;99525.81;4903872;29;20488;-79
2022/11/23 02:33:07;;;;;;;3.90;2.72;;;;;;;17.56;58.60;99529.47;4921169;29;20388;-78
2022/11/23 02:35:34;;;;;;;3.70;2.22;;;;;;;17.57;58.51;99536.50;4920836;29;20048;-79
2022/11/23 02:38:05;;;;;;;4.47;2.55;;;;;;;17.57;58.39;99533.81;4903818;29;20079;-79
2022/11/23 02:40:35;;;;;;;4.75;2.65;;;;;;;17.57;58.53;99541.84;4919282;29;20068;-79
2022/11/23 02:43:03;;;;;;;3.75;2.35;;;;;;;17.57;58.45;99541.03;4903320;29;20064;-79
2022/11/23 02:45:37;;;;;;;5.53;2.45;;;;;;;17.56;58.44;99540.19;4920947;29;20048;-79
2022/11/23 02:48:04;;;;;;;3.47;2.30;;;;;;;17.55;58.38;99541.19;4920891;29;20051;-78
2022/11/23 02:50:32;;;;;;;4.70;2.88;;;;;;;17.55;58.42;99538.50;4918447;29;20059;-79
2022/11/23 02:52:59;;;;;;;5.38;2.22;;;;;;;17.55;58.45;99538.50;4918326;29;20056;-78
2022/11/23 02:55:27;;;;;;;4.30;2.28;;;;;;;17.55;58.52;99533.16;4902864;29;20052;-78
2022/11/23 02:57:54;;;;;;;5.88;2.67;;;;;;;17.55;58.48;99536.66;4902626;29;20500;-78
2022/11/23 03:00:21;;;;;;;3.55;2.30;;;;;;;17.55;58.52;99541.19;4902765;29;20048;-78
2022/11/23 03:02:49;;;;;;;6.57;2.80;;;;;;;17.54;58.59;99543.03;4920079;29;20048;-78
2022/11/23 03:05:16;;;;;;;4.57;2.58;;;;;;;17.54;58.53;99547.50;4920022;29;20537;-78
2022/11/23 03:07:43;;;;;;;4.20;2.28;;;;;;;17.54;58.48;99553.72;4902282;29;20063;-79
2022/11/23 03:10:12;;;;;;;3.85;2.13;;;;;;;17.54;58.53;99547.50;4902992;29;20048;-80
2022/11/23 03:12:40;;;;;;;5.63;2.10;;;;;;;17.54;58.47;99556.41;4901597;29;20083;-79
2022/11/23 03:15:08;;;;;;;5.15;2.60;;;;;;;17.54;58.52;99555.53;4919673;29;20052;-78
2022/11/23 03:17:39;;;;;;;5.63;2.35;;;;;;;17.54;58.53;99560.88;4920074;29;20048;-78
2022/11/23 03:20:11;;;;;;;6.93;2.72;;;;;;;17.53;58.55;99562.72;4902406;29;20051;-78
2022/11/23 03:22:42;;;;;;;4.90;2.03;;;;;;;17.53;58.35;99568.06;4903040;29;20051;-79
2022/11/23 03:25:12;;;;;;;3.10;1.80;;;;;;;17.53;58.40;99575.25;4917870;29;20063;-80
2022/11/23 03:27:39;;;;;;;3.80;2.03;;;;;;;17.53;58.37;99577.94;4919979;29;20373;-78
2022/11/23 03:30:08;;;;;;;4.13;2.00;;;;;;;17.53;58.32;99589.47;4902082;29;20048;-79
2022/11/23 03:32:36;;;;;;;3.45;2.08;;;;;;;17.53;58.38;99581.44;4902416;29;20492;-79
2022/11/23 03:35:05;;;;;;;3.13;1.95;;;;;;;17.53;58.21;99583.28;4918081;29;20056;-79
2022/11/23 03:37:34;;;;;;;3.58;2.22;;;;;;;17.53;58.42;99585.97;4902168;29;20075;-78
2022/11/23 03:40:02;;;;;;;5.10;2.50;;;;;;;17.54;58.20;99590.31;4902072;29;20048;-79
2022/11/23 03:42:47;;;;;;;4.38;1.75;;;;;;;17.54;58.44;99587.63;4921998;29;20067;-78
2022/11/23 03:45:15;;;;;;;4.43;2.10;;;;;;;17.53;58.24;99589.47;4902137;29;20060;-78
2022/11/23 03:47:43;;;;;;;3.22;1.98;;;;;;;17.54;58.41;99601.03;4901492;29;20052;-78
2022/11/23 03:50:11;;;;;;;4.63;1.90;;;;;;;17.54;58.32;99595.66;4917468;29;20089;-78
2022/11/23 03:52:38;;;;;;;4.57;2.25;;;;;;;17.53;58.26;99594.84;4919194;29;20059;-78
2022/11/23 03:55:06;;;;;;;4.63;1.90;;;;;;;17.54;58.26;99595.66;4901733;29;20448;-78
2022/11/23 03:57:34;;;;;;;4.80;2.08;;;;;;;17.53;58.33;99594.84;4901736;29;20052;-78
2022/11/23 04:00:04;;;;;;;5.40;2.03;;;;;;;17.54;58.21;99599.22;4901753;29;20059;-79
2022/11/23 04:02:39;;;;;;;4.22;1.70;;;;;;;17.54;58.40;99603.69;4925596;29;20060;-79
2022/11/23 04:05:22;;;;;;;2.83;1.65;;;;;;;17.52;58.18;99585.13;4917525;29;20059;-78
2022/11/23 04:08:08;;;;;;;3.17;1.65;;;;;;;17.53;58.18;99583.28;4920894;29;20070;-78
2022/11/23 04:10:36;;;;;;;3.42;1.67;;;;;;;17.52;58.45;99582.44;4917219;29;20055;-78
2022/11/23 04:13:12;;;;;;;3.70;1.80;;;;;;;17.53;58.03;99572.59;4902306;29;20048;-79
2022/11/23 04:15:40;;;;;;;3.00;1.80;;;;;;;17.53;58.02;99572.59;4886388;29;20052;-78
2022/11/23 04:18:08;;;;;;;4.47;1.90;;;;;;;17.52;58.05;99581.63;4916879;29;20067;-78
2022/11/23 04:20:38;;;;;;;3.88;1.83;;;;;;;17.51;57.92;99570.06;4901330;29;20408;-79
2022/11/23 04:23:05;;;;;;;2.75;1.67;;;;;;;17.53;57.86;99580.63;4901108;29;20085;-78
2022/11/23 04:25:39;;;;;;;4.53;1.60;;;;;;;17.52;57.86;99573.59;4900879;29;20052;-78
2022/11/23 04:28:08;;;;;;;3.35;1.70;;;;;;;17.52;57.97;99579.78;4919242;29;20064;-78
2022/11/23 04:30:35;;;;;;;4.15;1.70;;;;;;;17.52;57.90;99578.94;4918632;29;20048;-78
2022/11/23 04:33:03;;;;;;;2.88;1.48;;;;;;;17.51;57.81;99583.44;4901467;29;20055;-78
2022/11/23 04:35:33;;;;;;;2.40;1.40;;;;;;;17.52;57.76;99585.13;4916804;29;20064;-80
2022/11/23 04:38:01;;;;;;;5.32;1.67;;;;;;;17.51;57.87;99587.97;4916407;29;20074;-78
2022/11/23 04:40:30;;;;;;;3.28;1.48;;;;;;;17.51;57.77;99579.94;4900927;29;20044;-77
2022/11/23 04:43:02;;;;;;;2.50;1.45;;;;;;;17.51;57.71;99583.44;4916590;29;20064;-78
2022/11/23 04:45:36;;;;;;;3.15;1.35;;;;;;;17.51;57.73;99580.78;4901825;29;20063;-78
2022/11/23 04:48:06;;;;;;;2.97;1.52;;;;;;;17.50;57.66;99579.09;4900995;29;20059;-78
2022/11/23 04:50:36;;;;;;;1.73;0.88;;;;;;;17.51;57.76;99579.94;4901213;29;20052;-78
2022/11/23 04:53:08;;;;;;;3.25;1.58;;;;;;;17.50;57.83;99579.09;4900882;29;20059;-80
2022/11/23 04:55:41;;;;;;;;;;;;;;;17.50;57.67;99594.28;4901185;29;20059;-78
2022/11/23 04:58:09;;;;;;;2.30;1.15;;;;;;;17.50;57.79;99599.63;4900755;29;19923;-81
2022/11/23 05:00:36;;;;;;;2.65;1.38;;;;;;;17.49;57.56;99612.19;4901065;29;20048;-78
2022/11/23 05:03:05;;;;;;;2.95;1.52;;;;;;;17.49;57.80;99600.63;4901413;29;20056;-78
2022/11/23 05:05:38;;;;;;;3.00;1.42;;;;;;;17.49;57.61;99597.97;4885406;29;20056;-78
2022/11/23 05:08:07;;;;;;;3.53;1.73;;;;;;;17.49;57.65;99609.50;4916353;29;20063;-79
2022/11/23 05:10:49;;;;;;;2.17;1.00;;;;;;;17.49;57.56;99604.16;4900936;29;20056;-79
2022/11/23 05:13:18;;;;;;;3.13;1.23;;;;;;;17.50;57.44;99596.97;4900441;29;20078;-78
2022/11/23 05:15:48;;;;;;;2.33;1.25;;;;;;;17.49;57.57;99598.81;4918552;29;20052;-80
2022/11/23 05:18:22;;;;;;;2.90;1.40;;;;;;;17.49;57.53;99603.31;4915811;29;20052;-78
2022/11/23 05:20:50;;;;;;;5.25;1.40;;;;;;;17.49;57.55;99603.31;4915796;29;20048;-78
2022/11/23 05:23:17;;;;;;;2.33;1.25;;;;;;;17.48;57.62;99598.97;4915710;29;20063;-78
2022/11/23 05:25:45;;;;;;;2.90;1.40;;;;;;;17.48;57.56;99605.16;4901073;29;20374;-78
2022/11/23 05:28:18;;;;;;;2.90;1.23;;;;;;;17.48;57.44;99607.00;4900807;29;20067;-78
2022/11/23 05:31:06;;;;;;;3.40;1.20;;;;;;;17.48;57.48;99615.84;4900314;29;20087;-78
2022/11/23 05:33:34;;;;;;;2.17;1.30;;;;;;;17.48;57.44;99623.88;4900998;29;20052;-78
2022/11/23 05:36:03;;;;;;;2.35;1.30;;;;;;;17.48;57.47;99623.88;4915656;29;20056;-77
2022/11/23 05:38:36;;;;;;;2.58;1.15;;;;;;;17.48;57.33;99621.19;4915599;29;20460;-77
2022/11/23 05:41:09;;;;;;;2.85;1.38;;;;;;;17.48;57.34;99617.69;4899933;29;20078;-80
2022/11/23 05:43:39;;;;;;;1.98;0.95;;;;;;;17.47;57.31;99613.34;4900038;29;20501;-78
2022/11/23 05:46:10;;;;;;;2.40;1.00;;;;;;;17.48;57.29;99620.38;4900398;29;20059;-80
2022/11/23 05:48:38;;;;;;;2.72;1.50;;;;;;;17.46;57.25;99625.00;4900601;29;20056;-80
2022/11/23 05:51:09;;;;;;;2.30;1.33;;;;;;;17.46;57.15;99620.53;4917817;29;20055;-79
2022/11/23 05:53:42;;;;;;;;;;;;;;;17.46;57.27;99623.19;4900102;29;20052;-80
2022/11/23 05:56:28;;;;;;;2.67;1.13;;;;;;;17.47;57.42;99621.38;4900130;29;19923;-80
2022/11/23 05:59:11;;;;;;;2.67;1.03;;;;;;;17.46;57.25;99630.34;4900083;29;20063;-79
2022/11/23 06:01:42;;;;;;;3.17;1.30;;;;;;;17.46;57.22;99620.53;4915313;29;20082;-80
2022/11/23 06:04:17;;;;;;;3.70;1.15;;;;;;;17.46;57.15;99630.34;4900309;29;20064;-80
2022/11/23 06:06:45;;;;;;;2.28;1.00;;;;;;;17.46;57.13;99630.34;4900272;29;20052;-79
2022/11/23 06:09:12;;;;;;;2.38;1.27;;;;;;;17.46;57.24;99630.34;4899622;29;20059;-80
2022/11/23 06:11:43;;;;;;;4.25;1.00;;;;;;;17.46;57.05;99641.06;4917421;29;20071;-78
2022/11/23 06:14:16;;;;;;;4.55;1.40;;;;;;;17.45;57.12;99640.22;4900195;29;20056;-75
2022/11/23 06:16:45;;;;;;;2.88;1.27;;;;;;;17.46;57.04;99633.03;4917518;29;20044;-76
2022/11/23 06:19:24;;;;;;;2.85;1.30;;;;;;;17.45;57.13;99640.22;4899848;29;20059;-79
2022/11/23 06:21:52;;;;;;;2.58;1.05;;;;;;;17.45;57.05;99642.06;4915499;29;20048;-79
2022/11/23 06:24:21;;;;;;;4.15;1.30;;;;;;;17.45;57.06;99655.44;4899617;29;20385;-79
2022/11/23 06:27:01;;;;;;;2.75;1.10;;;;;;;17.44;57.01;99653.75;4915144;29;20052;-79
2022/11/23 06:29:29;;;;;;;2.67;1.17;;;;;;;17.44;56.94;99649.25;4916920;29;20052;-79
2022/11/23 06:31:57;;;;;;;4.25;1.20;;;;;;;17.44;56.95;99659.94;4915309;29;20510;-79
2022/11/23 06:34:26;;;;;;;2.20;0.93;;;;;;;17.44;57.00;99664.47;4899247;29;20056;-79
2022/11/23 06:36:53;;;;;;;2.55;1.05;;;;;;;17.44;56.92;99673.31;4917183;29;20142;-79
2022/11/23 06:39:22;;;;;;;2.95;1.10;;;;;;;17.44;57.05;99672.50;4899369;29;20060;-80
2022/11/23 06:41:51;;;;;;;3.38;1.08;;;;;;;17.43;56.94;99668.13;4914731;29;20060;-79
2022/11/23 06:44:19;;;;;;;2.47;1.05;;;;;;;17.43;56.94;99676.16;4899859;29;20063;-80
2022/11/23 06:46:46;;;;;;;2.50;0.80;;;;;;;17.43;57.07;99684.19;4899699;29;20420;-79
2022/11/23 06:49:14;;;;;;;2.30;1.00;;;;;;;17.44;57.04;99691.22;4903408;29;20412;-79
2022/11/23 06:51:45;;;;;;;2.30;1.00;;;;;;;17.42;56.90;99691.38;4903486;29;20059;-80
2022/11/23 06:54:13;;;;;;;1.85;1.00;;;;;;;17.43;56.95;99694.88;4903270;29;20063;-79
2022/11/23 06:56:40;;;;;;;2.40;1.10;;;;;;;17.43;56.91;99700.25;4903252;29;20056;-79
2022/11/23 06:59:09;;;;;;;2.90;1.15;;;;;;;17.43;56.92;99713.63;4902839;29;20055;-78
2022/11/23 07:01:36;;;;;;;2.67;1.20;;;;;;;17.43;56.94;99724.31;4902767;29;20052;-77
2022/11/23 07:04:07;;;;;;;2.28;1.33;;;;;;;17.43;57.12;99732.34;4921080;29;20048;-79
2022/11/23 07:06:43;;;;;;;2.55;1.30;;;;;;;17.42;56.94;99727.97;4903742;29;20052;-79
2022/11/23 07:09:22;;;;;;;3.70;1.30;;;;;;;17.42;56.99;99747.56;4902668;29;20055;-79
2022/11/23 07:12:18;;;;;;;3.78;1.20;;;;;;;17.41;57.09;99753.88;4862437;29;20150;-80
2022/11/23 07:14:45;;;;;;;4.43;1.42;;;;;;;17.41;57.08;99759.22;4861721;29;20064;-79
2022/11/23 07:17:13;;;;;;;2.63;1.40;;;;;;;17.41;56.92;99767.25;4846504;29;20070;-77
2022/11/23 07:19:44;;;;;;;2.03;1.10;;;;;;;17.42;56.92;99768.09;4861649;29;20423;-77
2022/11/23 07:22:12;;;;;;;5.05;1.23;;;;;;;17.40;57.10;99765.56;4846103;29;20061;-79
2022/11/23 07:24:39;;;;;;;3.85;1.48;;;;;;;17.41;57.06;99774.44;4861801;29;20060;-76
2022/11/23 07:27:12;;;;;;;2.33;1.00;;;;;;;17.40;56.94;99770.94;4846242;29;20057;-80
2022/11/23 07:29:40;;;;;;;4.18;1.23;;;;;;;17.41;57.01;99769.09;4845980;29;20061;-79
2022/11/23 07:32:07;;;;;;;3.78;1.17;;;;;;;17.40;57.01;99765.56;4862287;29;20060;-80
2022/11/23 07:34:35;;;;;;;5.38;1.48;;;;;;;17.43;57.37;99780.50;4846000;29;20068;-80
2022/11/23 07:37:06;;;;;;;4.80;1.73;;;;;;;17.41;56.18;99788.66;4846113;29;20061;-80
2022/11/23 07:39:34;;;;;;;3.47;1.17;;;;;;;17.42;56.99;99795.72;4845996;29;20049;-79
2022/11/23 07:42:22;;;;;;;5.40;1.55;;;;;;;17.41;57.16;99798.53;4860614;29;20541;-80
2022/11/23 07:45:10;;;;;;;4.10;1.35;;;;;;;17.42;57.29;99810.91;4861611;29;20049;-80
2022/11/23 07:47:43;;;;;;;5.47;1.80;;;;;;;17.42;57.34;99808.22;4846533;29;20058;-81
2022/11/23 07:50:12;;;;;;;4.97;1.67;;;;;;;17.41;57.37;99802.03;4900541;29;20056;-78
2022/11/23 07:52:40;;;;;;;4.90;1.35;;;;;;;17.42;57.21;99803.75;4901583;29;20044;-80
2022/11/23 07:55:08;;;;;;;5.07;1.35;;;;;;;17.43;56.67;99812.63;4901342;29;20071;-80
2022/11/23 07:57:35;;;;;;;2.90;1.40;;;;;;;17.44;56.65;99811.63;4901368;29;20396;-79
2022/11/23 08:00:03;;;;;;;10.80;1.85;;;;;;;17.40;53.07;99819.09;4899686;29;20068;-78
2022/11/23 08:02:38;;;;;;;6.55;1.70;;;;;;;17.21;49.24;99811.91;4906374;29;20061;-79
2022/11/23 08:05:26;;;;;;;4.45;1.77;;;;;;;17.03;50.21;99814.47;4900725;29;20053;-79
2022/11/23 08:08:00;;;;;;;4.60;1.73;;;;;;;17.11;53.58;99820.97;4901809;29;20075;-77
2022/11/23 08:10:30;;;;;;;5.63;1.80;;;;;;;17.19;55.69;99823.78;4938398;29;20051;-77
2022/11/23 08:13:02;;;;;;;10.13;2.03;;;;;;;17.22;56.14;99818.97;4938207;29;20051;-78
2022/11/23 08:15:30;;;;;;;11.53;2.57;;;;;;;17.28;56.32;99820.22;4938244;29;20051;-79
2022/11/23 08:17:59;;;;;;;7.22;1.92;;;;;;;17.33;56.11;99822.47;4938417;29;20052;-79
2022/11/23 08:20:28;;;;;;;5.43;2.08;;;;;;;17.36;56.19;99820.34;4938680;29;20498;-77
2022/11/23 08:22:55;;;;;;;6.75;2.22;;;;;;;17.39;56.10;99820.06;4938377;29;20039;-79
2022/11/23 08:25:24;;;;;;;6.38;1.60;;;;;;;17.43;56.37;99834.84;4938186;29;20063;-79
2022/11/23 08:28:00;;;;;;;11.73;1.85;;;;;;;17.46;56.35;99817.66;4937975;29;20152;-78
2022/11/23 08:30:28;;;;;;;6.95;2.55;;;;;;;17.49;56.68;99817.38;4919421;29;20051;-77
2022/11/23 08:32:56;;;;;;;6.35;1.50;;;;;;;17.51;56.79;99826.94;4938378;29;20479;-77
2022/11/23 08:35:23;;;;;;;5.50;1.88;;;;;;;17.53;56.42;99824.97;4938072;29;20396;-77
2022/11/23 08:37:51;;;;;;;4.50;1.80;;;;;;;17.54;56.44;99831.16;4938006;29;20050;-77
2022/11/23 08:40:18;;;;;;;7.25;2.20;;;;;;;17.55;56.04;99833.72;4937317;29;20043;-77
2022/11/23 08:42:51;;;;;;;8.65;1.40;;;;;;;17.57;55.75;99828.19;4937281;29;20047;-77
2022/11/23 08:45:19;;;;;;;5.22;1.77;;;;;;;17.57;55.74;99836.22;4937270;29;20051;-77
2022/11/23 08:47:46;;;;;;;3.63;1.70;;;;;;;17.58;55.46;99835.22;4937390;29;20411;-77
2022/11/23 08:50:13;;;;;;;8.52;1.65;;;;;;;17.59;55.40;99828.06;4937122;29;20052;-77
2022/11/23 08:52:41;;;;;;;3.05;1.40;;;;;;;17.58;55.16;99827.19;4937795;29;20476;-77
2022/11/23 08:55:09;;;;;;;3.13;1.30;;;;;;;17.58;55.22;99827.19;4937286;29;20412;-75
2022/11/23 08:57:36;;;;;;;6.82;1.98;;;;;;;17.59;55.14;99831.59;4919635;29;20055;-75
2022/11/23 09:00:05;;;;;;;3.78;1.05;;;;;;;17.61;55.10;99836.78;4937021;29;20048;-78
2022/11/23 09:02:32;;;;;;;5.78;1.35;;;;;;;17.61;55.25;99842.97;4937627;29;20070;-77
2022/11/23 09:04:59;;;;;;;7.03;1.80;;;;;;;17.62;54.97;99850.00;4937160;29;20507;-77
2022/11/23 09:07:26;;;;;;;3.33;1.50;;;;;;;17.63;54.95;99859.75;4937597;29;20055;-77
2022/11/23 09:09:54;;;;;;;5.80;1.30;;;;;;;17.63;55.06;99862.44;4936905;29;20054;-75
2022/11/23 09:12:21;;;;;;;4.03;1.05;;;;;;;17.64;54.81;99860.59;4920858;29;20070;-78
2022/11/23 09:14:48;;;;;;;3.90;1.38;;;;;;;17.64;54.80;99864.09;4936886;29;20412;-76
2022/11/23 09:17:16;;;;;;;2.78;1.17;;;;;;;17.65;54.88;99862.28;4936766;29;20492;-76
2022/11/23 09:19:43;;;;;;;6.10;1.92;;;;;;;17.65;54.63;99860.44;4936853;29;20047;-76
2022/11/23 09:22:10;;;;;;;3.25;1.48;;;;;;;17.65;54.64;99879.16;4936989;29;20044;-76
2022/11/23 09:24:38;;;;;;;3.28;1.00;;;;;;;17.66;54.71;99871.97;4937551;29;20063;-76
2022/11/23 09:27:05;;;;;;;3.10;1.50;;;;;;;17.66;54.58;99880.00;4937200;29;20048;-76
2022/11/23 09:29:32;;;;;;;5.53;1.30;;;;;;;17.66;54.77;99883.56;4918628;29;20052;-77
2022/11/23 09:32:01;;;;;;;5.25;1.60;;;;;;;17.68;55.52;99875.38;4936398;29;20055;-76
2022/11/23 09:34:29;;;;;;;4.15;1.20;;;;;;;17.68;55.35;99875.38;4929982;29;20051;-76
2022/11/23 09:36:57;;;;;;;6.15;1.70;;;;;;;17.69;54.12;99875.22;4918118;29;20048;-76
2022/11/23 09:39:24;;;;;;;6.43;1.50;;;;;;;17.70;54.05;99878.72;4917737;29;20051;-77
2022/11/23 09:42:36;;;;;;;4.63;1.08;;;;;;;17.71;55.38;99877.75;4917280;29;20059;-77
2022/11/23 09:45:32;;;;;;;2.28;1.23;;;;;;;17.72;54.97;99885.63;4888910;29;20052;-75
2022/11/23 09:48:18;;;;;;;4.43;2.25;;;;;;;17.74;54.98;99883.72;4862319;29;20052;-76
2022/11/23 09:50:48;;;;;;;2.83;1.40;;;;;;;17.75;54.15;99887.22;4878177;29;20060;-76
2022/11/23 09:53:35;;;;;;;6.22;1.77;;;;;;;17.74;53.82;99880.13;4861686;29;20053;-76
2022/11/23 09:56:03;;;;;;;3.53;1.45;;;;;;;17.74;53.47;99886.38;4877879;29;20061;-76
2022/11/23 09:58:37;;;;;;;4.85;1.38;;;;;;;17.75;53.37;99879.19;4877642;29;20057;-75
2022/11/23 10:01:10;;;;;;;3.78;1.17;;;;;;;17.76;53.33;99872.84;4877738;29;20052;-76
2022/11/23 10:03:41;;;;;;;2.58;1.27;;;;;;;17.76;53.58;99878.19;4877699;29;20045;-75
2022/11/23 10:06:30;;;;;;;4.68;1.40;;;;;;;17.76;53.59;99884.41;4878172;29;20069;-77
2022/11/23 10:09:20;;;;;;;5.20;1.55;;;;;;;17.77;53.67;99883.41;4877978;29;20087;-76
2022/11/23 10:12:04;;;;;;;3.05;1.23;;;;;;;17.77;53.80;99886.06;4877750;29;20072;-76
2022/11/23 10:14:40;;;;;;;;;;;;;;;17.77;53.41;99888.75;4890091;29;20060;-77
2022/11/23 10:17:37;;;;;;;4.43;1.30;;;;;;;17.77;54.41;99885.25;4886446;29;20055;-81
2022/11/23 10:20:26;;;;;;;2.72;1.20;;;;;;;17.76;51.45;99887.06;4878464;29;20049;-76
2022/11/23 10:22:57;;;;;;;3.55;1.20;;;;;;;17.73;50.54;99881.97;4878926;29;20063;-77
2022/11/23 10:25:30;;;;;;;3.10;1.35;;;;;;;17.72;49.98;99879.44;4895727;29;20421;-77
2022/11/23 10:28:12;;;;;;;2.13;1.10;;;;;;;17.71;49.43;99881.28;4920420;29;20048;-79
2022/11/23 10:30:40;;;;;;;2.90;1.50;;;;;;;17.69;48.62;99869.03;4921404;29;20055;-78
2022/11/23 10:33:22;;;;;;;3.67;1.15;;;;;;;17.65;48.50;99871.13;4921172;29;20049;-78
2022/11/23 10:35:49;;;;;;;2.38;1.33;;;;;;;17.64;48.33;99863.25;4921581;29;20052;-77
2022/11/23 10:38:19;;;;;;;2.28;1.30;;;;;;;17.59;46.88;99854.84;4920961;29;20048;-77
2022/11/23 10:41:03;;;;;;;2.97;1.20;;;;;;;17.57;47.15;99854.13;4921074;29;20051;-77
2022/11/23 10:43:54;;;;;;;3.60;1.52;;;;;;;17.54;46.76;99863.25;4920436;29;20056;-76
2022/11/23 10:46:33;;;;;;;2.33;1.13;;;;;;;17.50;46.95;99868.09;4920768;29;20500;-76
2022/11/23 10:49:21;;;;;;;2.20;1.10;;;;;;;17.49;47.29;99862.84;4920259;29;20060;-77
2022/11/23 10:51:59;;;;;;;4.00;1.10;;;;;;;17.47;47.23;99859.50;4921136;29;20484;-76
2022/11/23 10:54:32;;;;;;;3.05;1.10;;;;;;;17.46;46.55;99860.47;4921076;29;20048;-78
2022/11/23 10:57:01;;;;;;;;;;;;;;;17.41;46.60;99865.41;4903605;29;20060;-76
2022/11/23 10:59:32;;;;;;;2.60;1.30;;;;;;;17.36;46.11;99859.66;4914366;29;19923;-77
2022/11/23 11:02:20;;;;;;;3.33;1.38;;;;;;;17.30;46.15;99859.25;4903081;29;20052;-77
2022/11/23 11:04:49;;;;;;;3.05;1.52;;;;;;;17.26;46.42;99852.47;4920782;29;20052;-76
2022/11/23 11:07:29;;;;;;;3.17;1.20;;;;;;;17.25;46.85;99860.63;4920669;29;20052;-76
2022/11/23 11:10:02;;;;;;;2.60;1.00;;;;;;;17.25;46.56;99853.44;4920849;29;20048;-76
2022/11/23 11:12:33;;;;;;;3.58;1.38;;;;;;;17.24;46.09;99859.78;4920256;29;20507;-77
2022/11/23 11:15:09;;;;;;;1.90;0.88;;;;;;;17.22;46.41;99856.44;4920417;29;20086;-77
2022/11/23 11:17:39;;;;;;;4.53;1.20;;;;;;;17.21;45.60;99856.56;4919988;29;20048;-77
2022/11/23 11:20:32;;;;;;;4.32;1.08;;;;;;;17.17;45.76;99855.97;4919961;29;20074;-76
2022/11/23 11:23:16;;;;;;;2.58;1.00;;;;;;;17.16;45.97;99853.47;4914119;29;20045;-78
2022/11/23 11:25:45;;;;;;;2.28;0.95;;;;;;;17.17;47.53;99847.97;4920361;29;20052;-77
2022/11/23 11:28:25;;;;;;;2.30;1.10;;;;;;;17.23;48.97;99852.75;4920026;29;20044;-77
2022/11/23 11:31:08;;;;;;;2.13;0.90;;;;;;;17.27;49.60;99851.50;4917358;29;20060;-77
2022/11/23 11:33:39;;;;;;;;;;;;;;;17.31;50.00;99846.69;4920471;29;20048;-78
2022/11/23 11:36:11;;;;;;;1.90;0.90;;;;;;;17.35;50.41;99848.09;4921119;29;19923;-77
2022/11/23 11:38:41;;;;;;;2.75;1.02;;;;;;;17.38;50.43;99844.28;4915908;29;20056;-79
2022/11/23 11:41:24;;;;;;;2.10;1.05;;;;;;;17.39;50.49;99840.66;4921111;29;20048;-76
2022/11/23 11:43:55;;;;;;;;;;;;;;;17.41;50.96;99841.31;4920434;29;20079;-79
2022/11/23 11:46:27;;;;;;;3.58;0.90;;;;;;;17.44;51.33;99849.06;4919992;29;20291;-78
2022/11/23 11:49:07;;;;;;;3.60;1.08;;;;;;;17.44;51.65;99833.88;4916040;29;20061;-79
2022/11/23 11:52:20;;;;;;;1.98;0.88;;;;;;;17.47;51.90;99827.38;4920174;29;20059;-80
2022/11/23 11:55:10;;;;;;;1.90;0.80;;;;;;;17.48;52.09;99829.06;4842137;29;20515;-79